Time;durP1;ratioP1;P1;durP2;ratioP2;P2;SDS_P1;SDS_P2;PMS_P1;PMS_P2;Temp;Humidity;BMP_temperature;BMP_pressure;BME280_temperature;BME280_humidity;BME280_pressure;Samples;Min_cycle;Max_cycle;Signal;HPM_P1;HPM_P2
2022/08/30 00:01:01;;;;;;;9.75;3.50;;;16.00;99.90;;;;;;4944510;28;209817;-69
2022/08/30 00:02:02;;;;;;;9.40;3.67;;;16.00;99.90;;;;;;4997240;28;20046;-68
2022/08/30 00:04:28;;;;;;;10.02;3.40;;;16.00;99.90;;;;;;4934206;28;211538;-68
2022/08/30 00:06:54;;;;;;;10.90;3.67;;;16.00;99.90;;;;;;4985212;28;20126;-68
2022/08/30 00:09:20;;;;;;;9.38;4.30;;;16.00;99.90;;;;;;4942858;28;209843;-68
2022/08/30 00:11:47;;;;;;;10.95;4.28;;;16.00;99.90;;;;;;4987680;28;20050;-67
2022/08/30 00:14:13;;;;;;;11.52;4.50;;;16.00;99.90;;;;;;4940991;28;209764;-68
2022/08/30 00:16:39;;;;;;;10.50;3.80;;;16.00;99.90;;;;;;4986521;28;20042;-68
2022/08/30 00:19:05;;;;;;;12.05;4.28;;;16.00;99.90;;;;;;4938819;28;212882;-69
2022/08/30 00:21:32;;;;;;;10.88;4.70;;;16.00;99.90;;;;;;4985816;28;20431;-69
2022/08/30 00:23:58;;;;;;;10.05;4.57;;;16.00;99.90;;;;;;4943684;28;209433;-70
2022/08/30 00:26:24;;;;;;;11.57;4.85;;;16.00;99.90;;;;;;4995165;28;20050;-69
2022/08/30 00:28:50;;;;;;;10.98;5.13;;;16.00;99.90;;;;;;4982335;28;20054;-69
2022/08/30 00:31:16;;;;;;;9.60;4.50;;;16.10;99.90;;;;;;4936093;28;206927;-67
2022/08/30 00:33:43;;;;;;;11.68;4.38;;;16.10;99.90;;;;;;4988794;28;20039;-68
2022/08/30 00:36:09;;;;;;;12.07;4.53;;;16.10;99.90;;;;;;4942025;28;206831;-69
2022/08/30 00:38:35;;;;;;;9.57;4.15;;;16.10;99.90;;;;;;4978565;28;20063;-69
2022/08/30 00:41:01;;;;;;;11.65;4.10;;;16.10;99.90;;;;;;4939388;28;210081;-68
2022/08/30 00:43:32;;;;;;;9.45;4.30;;;16.10;99.90;;;;;;4981873;28;20070;-68
2022/08/30 00:46:03;;;;;;;12.73;4.72;;;16.10;99.90;;;;;;4957358;28;209536;-69
2022/08/30 00:48:34;;;;;;;10.35;4.47;;;16.10;99.90;;;;;;4971796;28;20050;-68
2022/08/30 00:51:06;;;;;;;10.13;4.22;;;16.00;99.90;;;;;;4948204;28;212532;-69
2022/08/30 00:53:36;;;;;;;11.30;4.13;;;16.00;99.90;;;;;;4984722;28;20423;-69
2022/08/30 00:56:04;;;;;;;9.70;4.60;;;16.00;99.90;;;;;;4939042;28;209023;-69
2022/08/30 00:58:34;;;;;;;10.90;3.78;;;16.00;99.90;;;;;;4981045;28;20416;-68
2022/08/30 01:01:01;;;;;;;8.25;3.72;;;16.00;99.90;;;;;;4920444;28;215267;-69
2022/08/30 01:03:28;;;;;;;9.88;3.38;;;16.00;99.90;;;;;;4986250;28;20055;-69
2022/08/30 01:05:56;;;;;;;8.52;3.35;;;16.00;99.90;;;;;;4945461;28;210905;-69
2022/08/30 01:08:22;;;;;;;10.43;3.78;;;16.00;99.90;;;;;;4985043;28;20038;-69
2022/08/30 01:10:50;;;;;;;9.05;3.58;;;16.00;99.90;;;;;;4942545;28;206194;-69
2022/08/30 01:13:16;;;;;;;7.80;3.55;;;16.00;99.90;;;;;;4993635;28;20046;-68
2022/08/30 01:15:44;;;;;;;9.93;3.35;;;16.00;99.90;;;;;;4940718;28;222785;-68
2022/08/30 01:18:13;;;;;;;19.00;4.10;;;16.00;99.90;;;;;;4986728;28;20053;-69
2022/08/30 01:21:09;;;;;;;9.02;3.75;;;16.00;99.90;;;;;;4920045;28;229022;-70
2022/08/30 01:23:39;;;;;;;11.45;3.92;;;16.00;99.90;;;;;;4983770;28;20073;-69
2022/08/30 01:26:05;;;;;;;10.50;4.38;;;15.90;99.90;;;;;;4934484;28;212129;-67
2022/08/30 01:28:32;;;;;;;9.13;3.88;;;15.90;99.90;;;;;;4989018;28;20058;-69
2022/08/30 01:31:07;;;;;;;11.45;4.15;;;15.90;99.90;;;;;;4959484;28;211821;-68
2022/08/30 01:33:37;;;;;;;10.00;4.10;;;15.90;99.90;;;;;;5005675;28;20062;-68
2022/08/30 01:36:19;;;;;;;9.23;3.63;;;15.90;99.90;;;;;;4981415;28;208666;-69
2022/08/30 01:38:50;;;;;;;11.35;4.22;;;15.80;99.90;;;;;;5006430;28;20062;-69
2022/08/30 01:41:21;;;;;;;9.25;4.00;;;15.80;99.90;;;;;;4979602;28;207081;-69
2022/08/30 01:43:49;;;;;;;9.13;3.75;;;15.80;99.90;;;;;;4982285;28;20053;-69
2022/08/30 01:46:17;;;;;;;9.43;3.67;;;15.80;99.90;;;;;;4900379;28;210552;-69
2022/08/30 01:48:44;;;;;;;11.48;4.35;;;15.70;99.90;;;;;;4980320;28;20061;-69
2022/08/30 01:51:13;;;;;;;10.00;4.20;;;15.70;99.90;;;;;;4924953;28;210209;-69
2022/08/30 01:53:40;;;;;;;9.75;4.07;;;15.70;99.90;;;;;;4985339;28;20491;-69
2022/08/30 01:56:07;;;;;;;12.57;5.03;;;15.70;99.90;;;;;;4947286;28;209236;-69
2022/08/30 01:58:35;;;;;;;10.75;3.88;;;15.60;99.90;;;;;;4983157;28;20058;-70
2022/08/30 02:01:05;;;;;;;10.18;3.92;;;15.60;99.90;;;;;;4944380;28;211722;-70
2022/08/30 02:03:34;;;;;;;9.77;4.03;;;15.70;99.90;;;;;;4977739;28;20046;-69
2022/08/30 02:06:06;;;;;;;9.05;4.00;;;15.60;99.90;;;;;;4942744;28;211850;-69
2022/08/30 02:08:33;;;;;;;11.20;4.03;;;15.60;99.90;;;;;;4983248;28;20058;-68
2022/08/30 02:10:59;;;;;;;11.80;4.40;;;15.60;99.90;;;;;;4950524;28;208867;-69
2022/08/30 02:13:26;;;;;;;9.95;3.70;;;15.60;99.90;;;;;;4978900;28;20054;-67
2022/08/30 02:15:55;;;;;;;10.23;4.22;;;15.50;99.90;;;;;;4955944;28;221833;-69
2022/08/30 02:18:23;;;;;;;10.65;4.20;;;15.50;99.90;;;;;;4982961;28;20062;-69
2022/08/30 02:20:50;;;;;;;10.07;3.67;;;15.50;99.90;;;;;;4954124;28;211431;-69
2022/08/30 02:23:17;;;;;;;10.98;4.20;;;15.50;99.90;;;;;;4984408;28;20062;-68
2022/08/30 02:25:44;;;;;;;9.13;4.35;;;15.40;99.90;;;;;;4944600;28;208870;-70
2022/08/30 02:28:11;;;;;;;10.65;3.70;;;15.40;99.90;;;;;;4982775;28;20058;-69
2022/08/30 02:30:37;;;;;;;11.00;3.60;;;15.40;99.90;;;;;;4945990;28;212295;-68
2022/08/30 02:33:03;;;;;;;9.45;4.20;;;15.40;99.90;;;;;;4978662;28;20070;-69
2022/08/30 02:35:30;;;;;;;9.95;3.95;;;15.30;99.90;;;;;;4947736;28;211543;-69
2022/08/30 02:37:56;;;;;;;10.27;3.72;;;15.30;99.90;;;;;;4982176;28;20062;-68
2022/08/30 02:40:22;;;;;;;9.13;3.72;;;15.30;99.90;;;;;;4923384;28;206800;-70
2022/08/30 02:42:49;;;;;;;11.43;4.53;;;15.20;99.90;;;;;;4991276;28;20042;-69
2022/08/30 02:45:15;;;;;;;10.25;3.95;;;15.20;99.90;;;;;;4932567;28;211600;-70
2022/08/30 02:47:42;;;;;;;13.18;4.65;;;15.10;99.90;;;;;;4988424;28;20061;-70
2022/08/30 02:50:09;;;;;;;9.32;4.03;;;15.10;99.90;;;;;;4954788;28;211001;-70
2022/08/30 02:52:36;;;;;;;9.95;4.00;;;15.10;99.90;;;;;;4982893;28;20042;-69
2022/08/30 02:55:05;;;;;;;9.52;4.05;;;15.00;99.90;;;;;;4936217;28;210764;-69
2022/08/30 02:57:32;;;;;;;10.20;4.15;;;15.00;99.90;;;;;;4961085;28;20086;-70
2022/08/30 02:59:58;;;;;;;10.35;4.05;;;14.90;99.90;;;;;;4944464;28;212668;-69
2022/08/30 03:02:24;;;;;;;10.73;4.20;;;14.80;99.90;;;;;;4987977;28;20050;-68
2022/08/30 03:04:51;;;;;;;9.98;4.25;;;14.80;99.90;;;;;;4947789;28;209332;-69
2022/08/30 03:07:18;;;;;;;11.40;4.28;;;14.70;99.90;;;;;;4979962;28;20418;-69
2022/08/30 03:09:44;;;;;;;8.38;3.70;;;14.70;99.90;;;;;;4936199;28;213648;-70
2022/08/30 03:12:12;;;;;;;8.80;4.30;;;14.60;99.90;;;;;;4983922;28;20049;-70
2022/08/30 03:14:38;;;;;;;11.55;4.50;;;14.60;99.90;;;;;;4944063;28;209110;-69
2022/08/30 03:17:06;;;;;;;11.93;4.47;;;14.50;99.90;;;;;;4992207;28;20058;-69
2022/08/30 03:19:35;;;;;;;11.02;4.28;;;14.50;99.90;;;;;;4936995;28;209429;-69
2022/08/30 03:22:03;;;;;;;9.63;4.53;;;14.50;99.90;;;;;;4981496;28;20061;-68
2022/08/30 03:24:30;;;;;;;14.70;4.55;;;14.40;99.90;;;;;;4939854;28;211918;-68
2022/08/30 03:26:56;;;;;;;9.07;4.40;;;14.30;99.90;;;;;;4994716;28;20055;-68
2022/08/30 03:29:22;;;;;;;9.23;4.20;;;14.30;99.90;;;;;;4935625;28;213350;-68
2022/08/30 03:31:49;;;;;;;10.95;4.78;;;14.30;99.90;;;;;;4984265;28;20061;-68
2022/08/30 03:34:15;;;;;;;9.90;4.65;;;14.20;99.90;;;;;;4934990;28;212275;-68
2022/08/30 03:36:41;;;;;;;10.48;4.20;;;14.10;99.90;;;;;;4995521;28;20042;-68
2022/08/30 03:39:08;;;;;;;9.88;3.92;;;14.10;99.90;;;;;;4941575;28;215760;-68
2022/08/30 03:41:34;;;;;;;13.18;4.68;;;14.00;99.90;;;;;;4996448;28;20058;-67
2022/08/30 03:44:01;;;;;;;11.17;4.43;;;14.00;99.90;;;;;;4939191;28;220730;-69
2022/08/30 03:46:28;;;;;;;10.70;4.80;;;14.00;99.90;;;;;;4990253;28;20066;-68
2022/08/30 03:48:55;;;;;;;10.52;5.15;;;14.00;99.90;;;;;;4969451;28;209482;-68
2022/08/30 03:51:22;;;;;;;9.57;5.20;;;13.90;99.90;;;;;;4978770;28;206128;-68
2022/08/30 03:53:48;;;;;;;13.20;5.60;;;13.90;99.90;;;;;;4985104;28;20054;-68
2022/08/30 03:56:16;;;;;;;11.23;5.50;;;13.80;99.90;;;;;;4946642;28;206992;-68
2022/08/30 03:58:43;;;;;;;10.48;5.00;;;13.80;99.90;;;;;;4984568;28;20058;-69
2022/08/30 04:01:09;;;;;;;11.88;5.50;;;13.80;99.90;;;;;;4938988;28;206430;-68
2022/08/30 04:03:36;;;;;;;12.18;6.10;;;13.70;99.90;;;;;;4984688;28;20050;-68
2022/08/30 04:06:02;;;;;;;11.60;5.80;;;13.70;99.90;;;;;;4949641;28;211976;-67
2022/08/30 04:08:28;;;;;;;10.27;5.13;;;13.70;99.90;;;;;;4986106;28;20062;-68
2022/08/30 04:10:54;;;;;;;12.02;5.45;;;13.70;99.90;;;;;;4948227;28;222219;-67
2022/08/30 04:13:22;;;;;;;9.80;4.97;;;13.60;99.90;;;;;;4985444;28;20047;-69
2022/08/30 04:15:48;;;;;;;11.43;5.20;;;13.60;99.90;;;;;;4937316;28;212083;-68
2022/08/30 04:18:14;;;;;;;11.32;5.45;;;13.60;99.90;;;;;;4975023;28;20050;-68
2022/08/30 04:20:41;;;;;;;10.32;5.38;;;13.50;99.90;;;;;;4946500;28;209856;-68
2022/08/30 04:23:07;;;;;;;11.40;5.90;;;13.50;99.90;;;;;;4984537;28;20078;-67
2022/08/30 04:25:34;;;;;;;11.82;5.72;;;13.40;99.90;;;;;;4943021;28;212529;-67
2022/08/30 04:28:01;;;;;;;10.23;6.15;;;13.50;99.90;;;;;;4996619;28;20065;-66
2022/08/30 04:30:27;;;;;;;10.63;5.68;;;13.40;99.90;;;;;;4940384;28;219071;-69
2022/08/30 04:32:54;;;;;;;12.93;5.90;;;13.40;99.90;;;;;;4985542;28;20062;-68
2022/08/30 04:35:20;;;;;;;11.10;5.90;;;13.40;99.90;;;;;;4942629;28;210776;-69
2022/08/30 04:37:47;;;;;;;11.20;5.90;;;13.30;99.90;;;;;;4987746;28;20054;-67
2022/08/30 04:40:13;;;;;;;12.00;5.57;;;13.40;99.90;;;;;;4935110;28;210496;-68
2022/08/30 04:42:42;;;;;;;11.13;5.30;;;13.30;99.90;;;;;;4978379;28;20502;-68
2022/08/30 04:45:13;;;;;;;10.70;6.07;;;13.30;99.90;;;;;;4943343;28;209625;-67
2022/08/30 04:47:41;;;;;;;11.68;5.80;;;13.30;99.90;;;;;;4985038;28;20059;-68
2022/08/30 04:50:12;;;;;;;10.05;5.28;;;13.20;99.90;;;;;;4945328;28;208917;-68
2022/08/30 04:52:39;;;;;;;;;;;13.30;99.90;;;;;;4984210;28;20054;-67
2022/08/30 04:55:05;;;;;;;11.20;5.10;;;13.20;99.90;;;;;;4953992;28;211190;-67
2022/08/30 04:57:32;;;;;;;11.60;6.00;;;13.20;99.90;;;;;;4990352;28;20054;-68
2022/08/30 04:59:58;;;;;;;10.68;6.05;;;13.20;99.90;;;;;;4941916;28;215383;-68
2022/08/30 05:02:24;;;;;;;12.85;5.93;;;13.20;99.90;;;;;;4963109;28;20523;-68
2022/08/30 05:07:35;;;;;;;12.60;6.00;;;13.10;99.90;;;;;;4977305;28;20050;-68
2022/08/30 05:10:02;;;;;;;12.20;5.85;;;13.10;99.90;;;;;;4938279;28;212805;-66
2022/08/30 05:12:29;;;;;;;12.63;6.28;;;13.10;99.90;;;;;;4999146;28;20442;-68
2022/08/30 05:14:57;;;;;;;12.52;6.57;;;13.10;99.90;;;;;;4940914;28;206869;-67
2022/08/30 05:17:24;;;;;;;12.07;6.03;;;13.10;99.90;;;;;;4984920;28;20050;-66
2022/08/30 05:19:50;;;;;;;11.23;5.85;;;13.10;99.90;;;;;;4950404;28;209948;-67
2022/08/30 05:22:16;;;;;;;12.00;6.03;;;13.10;99.90;;;;;;4987295;28;20058;-67
2022/08/30 05:24:42;;;;;;;10.90;6.03;;;13.20;99.90;;;;;;4949498;28;221988;-67
2022/08/30 05:27:08;;;;;;;10.82;6.22;;;13.20;99.90;;;;;;4993374;28;20058;-68
2022/08/30 05:29:34;;;;;;;13.65;6.18;;;13.20;99.90;;;;;;4945543;28;210188;-67
2022/08/30 05:32:01;;;;;;;14.07;6.20;;;13.20;99.90;;;;;;4990289;28;20519;-67
2022/08/30 05:34:29;;;;;;;12.90;6.43;;;13.20;99.90;;;;;;4941821;28;209992;-68
2022/08/30 05:36:55;;;;;;;14.73;6.65;;;13.30;99.90;;;;;;4985531;28;20487;-68
2022/08/30 05:39:21;;;;;;;11.50;5.43;;;13.30;99.90;;;;;;4943073;28;211086;-67
2022/08/30 05:41:47;;;;;;;12.95;6.15;;;13.30;99.90;;;;;;4983038;28;20045;-66
2022/08/30 05:44:13;;;;;;;14.57;5.90;;;13.30;99.90;;;;;;4940526;28;209985;-67
2022/08/30 05:46:44;;;;;;;12.30;6.00;;;13.40;99.90;;;;;;4994744;28;20073;-67
2022/08/30 05:49:10;;;;;;;11.40;5.75;;;13.40;99.90;;;;;;4932183;28;210150;-67
2022/08/30 05:51:37;;;;;;;13.38;6.20;;;13.50;99.90;;;;;;4981934;28;20057;-67
2022/08/30 05:54:04;;;;;;;12.32;6.13;;;13.50;99.90;;;;;;4943385;28;209698;-67
2022/08/30 05:56:34;;;;;;;12.32;5.90;;;13.60;99.90;;;;;;4983060;28;20054;-66
2022/08/30 05:59:00;;;;;;;12.35;5.65;;;13.70;99.90;;;;;;4933403;28;214065;-68
2022/08/30 06:01:30;;;;;;;12.55;6.40;;;13.70;99.90;;;;;;4982773;28;20142;-68
2022/08/30 06:03:59;;;;;;;13.05;5.60;;;13.80;99.90;;;;;;4949018;28;213120;-67
2022/08/30 06:06:27;;;;;;;12.23;5.63;;;13.80;99.90;;;;;;4984065;28;207638;-66
2022/08/30 06:08:54;;;;;;;10.27;4.45;;;13.90;99.90;;;;;;4971728;28;210279;-68
2022/08/30 06:11:22;;;;;;;15.52;5.03;;;13.90;99.90;;;;;;4972392;28;207235;-66
2022/08/30 06:13:49;;;;;;;11.75;4.72;;;14.00;99.90;;;;;;4983925;28;20065;-66
2022/08/30 06:16:20;;;;;;;11.77;4.40;;;14.10;99.90;;;;;;4921229;28;209031;-68
2022/08/30 06:18:47;;;;;;;12.98;4.43;;;14.20;99.90;;;;;;4978572;28;20062;-69
2022/08/30 06:21:23;;;;;;;11.77;3.85;;;14.30;99.90;;;;;;4943192;28;211061;-67
2022/08/30 06:23:50;;;;;;;9.90;4.15;;;14.40;99.90;;;;;;4985249;28;20054;-67
2022/08/30 06:26:17;;;;;;;9.63;3.50;;;14.80;99.90;;;;;;4913586;28;205703;-67
2022/08/30 06:28:44;;;;;;;15.60;3.25;;;15.40;99.90;;;;;;4986626;28;20077;-67
2022/08/30 06:31:12;;;;;;;8.55;2.60;;;16.00;99.90;;;;;;4939620;28;209538;-68
2022/08/30 06:33:38;;;;;;;8.95;2.50;;;16.20;99.90;;;;;;4985199;28;20073;-67
2022/08/30 06:36:07;;;;;;;12.27;2.80;;;16.40;99.90;;;;;;4951241;28;209695;-67
2022/08/30 06:38:34;;;;;;;9.52;2.50;;;16.80;99.90;;;;;;4982101;28;20905;-68
2022/08/30 06:41:07;;;;;;;11.90;2.70;;;17.00;99.90;;;;;;4932698;28;214480;-67
2022/08/30 06:43:34;;;;;;;9.48;2.58;;;17.20;99.90;;;;;;4967456;28;20126;-67
2022/08/30 06:46:19;;;;;;;12.07;2.80;;;17.50;99.90;;;;;;4934030;28;210955;-66
2022/08/30 06:48:46;;;;;;;11.13;2.40;;;17.90;99.90;;;;;;4968603;28;20162;-67
2022/08/30 06:51:12;;;;;;;8.05;2.00;;;18.30;99.90;;;;;;4927709;28;226789;-67
2022/08/30 06:53:38;;;;;;;8.90;2.13;;;18.50;99.90;;;;;;4964682;28;20042;-68
2022/08/30 06:56:07;;;;;;;7.65;2.15;;;18.90;99.90;;;;;;4932487;28;209398;-68
2022/08/30 06:58:35;;;;;;;7.45;2.00;;;19.20;99.90;;;;;;4960847;28;20067;-67
2022/08/30 07:01:03;;;;;;;10.20;2.33;;;19.50;99.90;;;;;;4926294;28;208977;-67
2022/08/30 07:03:29;;;;;;;11.15;2.30;;;19.80;99.90;;;;;;4962930;28;20545;-68
2022/08/30 07:05:56;;;;;;;10.50;2.50;;;20.10;99.90;;;;;;4938261;28;210448;-68
2022/08/30 07:08:23;;;;;;;9.10;2.20;;;20.30;99.90;;;;;;4966240;28;20055;-68
2022/08/30 07:10:51;;;;;;;10.90;2.15;;;20.60;99.90;;;;;;4933613;28;210424;-67
2022/08/30 07:13:19;;;;;;;10.32;2.60;;;20.70;99.90;;;;;;4961877;28;20062;-67
2022/08/30 07:15:45;;;;;;;9.98;2.10;;;20.80;99.90;;;;;;4936639;28;209984;-67
2022/08/30 07:21:04;;;;;;;10.35;2.30;;;21.20;99.90;;;;;;4934137;28;209233;-67
2022/08/30 07:23:30;;;;;;;8.60;2.40;;;21.50;99.90;;;;;;4971821;28;20054;-67
2022/08/30 07:25:56;;;;;;;8.90;2.13;;;21.70;99.90;;;;;;4945598;28;215319;-67
2022/08/30 07:28:22;;;;;;;10.35;1.80;;;21.80;99.90;;;;;;4991362;28;20050;-68
2022/08/30 07:30:48;;;;;;;7.93;1.92;;;21.90;99.90;;;;;;4945731;28;208823;-68
2022/08/30 07:33:14;;;;;;;7.38;1.70;;;22.00;99.90;;;;;;4993512;28;20054;-67
2022/08/30 07:35:40;;;;;;;7.85;1.75;;;22.20;99.90;;;;;;4939978;28;216938;-66
2022/08/30 07:38:14;;;;;;;7.57;1.80;;;22.30;99.90;;;;;;4987070;28;20055;-66
2022/08/30 07:40:40;;;;;;;10.75;1.85;;;22.50;99.90;;;;;;4936524;28;216682;-68
2022/08/30 07:43:06;;;;;;;8.63;1.85;;;22.60;99.70;;;;;;4986777;28;20046;-66
2022/08/30 07:45:32;;;;;;;8.30;1.65;;;22.70;99.40;;;;;;4934114;28;210799;-67
2022/08/30 07:47:58;;;;;;;9.43;1.70;;;22.70;98.70;;;;;;4989229;28;20056;-67
2022/08/30 07:50:24;;;;;;;7.15;1.75;;;22.90;98.50;;;;;;4955593;28;209346;-66
2022/08/30 07:52:51;;;;;;;7.28;1.80;;;23.10;98.00;;;;;;4992450;28;20069;-68
2022/08/30 07:55:17;;;;;;;7.95;1.63;;;23.10;97.60;;;;;;4942946;28;207877;-67
2022/08/30 07:57:43;;;;;;;6.53;1.58;;;23.20;97.40;;;;;;4991073;28;20046;-68
2022/08/30 08:00:09;;;;;;;9.43;1.88;;;23.40;97.30;;;;;;4939630;28;217671;-68
2022/08/30 08:02:36;;;;;;;9.07;1.80;;;23.50;96.60;;;;;;4981775;28;20061;-69
2022/08/30 08:05:04;;;;;;;8.25;1.60;;;23.70;96.50;;;;;;4938480;28;216549;-68
2022/08/30 08:07:31;;;;;;;5.57;1.63;;;23.90;96.00;;;;;;4996779;28;20061;-71
2022/08/30 08:09:57;;;;;;;7.80;1.52;;;24.20;96.00;;;;;;4942523;28;209644;-68
2022/08/30 08:12:23;;;;;;;10.35;1.75;;;24.30;95.20;;;;;;4988993;28;20054;-68
2022/08/30 08:14:49;;;;;;;5.63;1.42;;;24.30;94.60;;;;;;4956126;28;209362;-67
2022/08/30 08:17:15;;;;;;;7.03;1.60;;;24.30;94.10;;;;;;4992857;28;20057;-67
2022/08/30 08:19:41;;;;;;;5.03;1.30;;;24.30;93.60;;;;;;4945785;28;209069;-68
2022/08/30 08:22:07;;;;;;;7.60;1.55;;;24.60;94.10;;;;;;4976462;28;20058;-66
2022/08/30 08:24:33;;;;;;;7.50;1.40;;;24.80;93.40;;;;;;4944177;28;209290;-68
2022/08/30 08:27:00;;;;;;;6.40;1.55;;;25.10;92.90;;;;;;4994926;28;20055;-67
2022/08/30 08:29:26;;;;;;;7.70;1.73;;;25.20;92.60;;;;;;4944081;28;214343;-69
2022/08/30 08:31:53;;;;;;;9.25;1.60;;;25.50;91.60;;;;;;4984945;28;20061;-69
2022/08/30 08:34:22;;;;;;;8.63;1.27;;;25.50;91.20;;;;;;4929349;28;210770;-68
2022/08/30 08:36:49;;;;;;;6.75;1.60;;;25.60;90.90;;;;;;4985257;28;20059;-69
2022/08/30 08:39:16;;;;;;;8.45;1.67;;;25.50;90.20;;;;;;4936745;28;223421;-69
2022/08/30 08:41:54;;;;;;;8.00;1.60;;;25.50;89.80;;;;;;4980486;28;20538;-69
2022/08/30 08:44:27;;;;;;;8.88;1.70;;;25.60;88.60;;;;;;4957038;28;206793;-69
2022/08/30 08:47:11;;;;;;;7.25;1.50;;;25.70;88.70;;;;;;4984226;28;20065;-68
2022/08/30 08:49:39;;;;;;;5.03;1.20;;;25.90;85.90;;;;;;4940823;28;212150;-69
2022/08/30 08:55:00;;;;;;;7.55;1.35;;;25.80;85.30;;;;;;4941557;28;208854;-69
2022/08/30 08:57:34;;;;;;;6.20;1.40;;;25.90;85.50;;;;;;4991024;28;20143;-69
2022/08/30 09:00:02;;;;;;;6.25;1.40;;;26.20;84.50;;;;;;4942790;28;215144;-68
2022/08/30 09:02:39;;;;;;;5.78;1.20;;;26.20;84.30;;;;;;4987520;28;20093;-69
2022/08/30 09:05:07;;;;;;;5.70;1.30;;;26.60;83.10;;;;;;4957017;28;218163;-69
2022/08/30 09:07:41;;;;;;;6.05;1.30;;;26.80;80.50;;;;;;4988574;28;20065;-69
2022/08/30 09:10:08;;;;;;;6.65;1.30;;;26.80;79.20;;;;;;4948366;28;211767;-70
2022/08/30 09:12:34;;;;;;;5.35;1.17;;;26.90;79.90;;;;;;4983718;28;21428;-70
2022/08/30 09:15:05;;;;;;;5.80;1.20;;;26.90;78.80;;;;;;4945031;28;212436;-69
2022/08/30 09:17:57;;;;;;;6.00;1.20;;;27.10;77.50;;;;;;4984338;28;20055;-70
2022/08/30 09:20:33;;;;;;;6.13;1.40;;;27.30;76.70;;;;;;4935634;28;209610;-70
2022/08/30 09:23:26;;;;;;;6.35;1.25;;;27.50;76.10;;;;;;4983766;28;20050;-70
2022/08/30 09:25:59;;;;;;;6.93;1.40;;;27.70;75.50;;;;;;4938925;28;210143;-69
2022/08/30 09:28:29;;;;;;;4.32;1.20;;;27.90;74.70;;;;;;4989954;28;20530;-70
2022/08/30 09:31:00;;;;;;;5.15;1.10;;;28.00;75.50;;;;;;4952726;28;212802;-70
2022/08/30 09:33:26;;;;;;;5.05;1.20;;;27.80;73.40;;;;;;4981287;28;20043;-70
2022/08/30 09:35:53;;;;;;;6.25;1.20;;;27.20;73.50;;;;;;4936187;28;206816;-69
2022/08/30 09:38:34;;;;;;;4.35;1.10;;;27.00;73.90;;;;;;4983952;28;20061;-68
2022/08/30 09:41:37;;;;;;;5.07;1.27;;;26.80;72.90;;;;;;4942041;28;164675;-69
2022/08/30 09:44:13;;;;;;;5.72;1.38;;;26.90;72.80;;;;;;4936214;28;215293;-72
2022/08/30 09:46:51;;;;;;;4.90;1.20;;;26.80;72.60;;;;;;4990192;28;20065;-69
2022/08/30 09:49:38;;;;;;;5.30;1.10;;;26.60;73.60;;;;;;4949537;28;209303;-70
2022/08/30 09:52:04;;;;;;;5.05;1.25;;;26.80;72.60;;;;;;4986989;28;20054;-70
2022/08/30 09:54:41;;;;;;;7.10;1.40;;;26.30;72.30;;;;;;4953009;28;211109;-69
2022/08/30 09:57:20;;;;;;;7.32;1.30;;;25.90;71.50;;;;;;4992584;28;20643;-68
2022/08/30 10:00:00;;;;;;;5.63;1.20;;;25.80;72.10;;;;;;4940292;28;210514;-69
2022/08/30 10:02:54;;;;;;;6.25;1.48;;;25.60;71.40;;;;;;4988596;28;20046;-69
2022/08/30 10:05:47;;;;;;;6.45;1.30;;;26.20;73.90;;;;;;4936984;28;208511;-69
2022/08/30 10:08:21;;;;;;;6.00;1.40;;;26.20;71.20;;;;;;4984375;28;20080;-69
2022/08/30 10:10:57;;;;;;;4.45;1.15;;;25.80;71.90;;;;;;4935892;28;210031;-69
2022/08/30 10:13:44;;;;;;;5.57;1.23;;;25.30;72.40;;;;;;4988445;28;20058;-70
2022/08/30 10:16:32;;;;;;;6.55;1.30;;;25.30;71.80;;;;;;4938494;28;212861;-70
2022/08/30 10:19:33;;;;;;;5.27;1.30;;;25.50;72.00;;;;;;4941023;28;212425;-69
2022/08/30 10:22:08;;;;;;;5.25;1.25;;;25.80;72.70;;;;;;4979775;28;20423;-67
2022/08/30 10:24:44;;;;;;;6.25;1.48;;;26.20;72.80;;;;;;4947835;28;214000;-69
2022/08/30 10:27:28;;;;;;;5.20;1.27;;;26.80;71.30;;;;;;4986420;28;20427;-69
2022/08/30 10:30:05;;;;;;;5.72;1.30;;;27.30;71.30;;;;;;4930612;28;210318;-70
2022/08/30 10:32:42;;;;;;;4.72;1.20;;;27.70;70.80;;;;;;4995498;28;20058;-69
2022/08/30 10:35:11;;;;;;;6.35;1.20;;;27.80;68.00;;;;;;4939105;28;213583;-69
2022/08/30 10:37:43;;;;;;;6.07;1.30;;;27.20;69.00;;;;;;4986962;28;20054;-70
2022/08/30 10:43:14;;;;;;;5.80;1.30;;;26.80;68.90;;;;;;4978855;28;20232;-69
2022/08/30 10:45:44;;;;;;;6.80;1.17;;;26.90;68.80;;;;;;4945624;28;44355;-69
2022/08/30 10:48:36;;;;;;;6.63;1.25;;;27.50;67.90;;;;;;4987194;28;20081;-69
2022/08/30 10:51:11;;;;;;;5.70;1.40;;;27.80;67.20;;;;;;4952648;28;203107;-69
2022/08/30 10:53:48;;;;;;;5.47;1.33;;;28.00;66.10;;;;;;4987869;28;20057;-68
2022/08/30 10:56:20;;;;;;;6.82;1.30;;;28.20;65.90;;;;;;4946061;28;195362;-69
2022/08/30 10:58:47;;;;;;;8.75;1.40;;;28.10;66.50;;;;;;4990368;28;20057;-69
2022/08/30 11:01:58;;;;;;;5.35;1.20;;;28.10;66.20;;;;;;4938400;28;209334;-69
2022/08/30 11:04:48;;;;;;;5.82;1.30;;;28.60;65.20;;;;;;4896847;29;174745;-69
2022/08/30 11:07:33;;;;;;;4.15;1.17;;;29.10;65.50;;;;;;4925959;29;20060;-69
2022/08/30 11:10:14;;;;;;;5.88;1.30;;;29.30;61.60;;;;;;4895041;29;179908;-69
2022/08/30 11:12:55;;;;;;;5.85;1.20;;;29.40;62.60;;;;;;4925378;29;20059;-68
2022/08/30 11:15:25;;;;;;;6.13;1.40;;;29.70;62.60;;;;;;4887668;29;204802;-69
2022/08/30 11:17:57;;;;;;;6.60;1.40;;;29.60;62.40;;;;;;4930388;29;20056;-69
2022/08/30 11:20:38;;;;;;;6.15;1.30;;;29.20;60.40;;;;;;4870785;29;206879;-68
2022/08/30 11:23:25;;;;;;;5.72;1.30;;;29.20;59.90;;;;;;4926372;29;20066;-69
2022/08/30 11:25:58;;;;;;;6.13;1.27;;;29.60;59.30;;;;;;4859670;29;208038;-70
2022/08/30 11:28:36;;;;;;;4.63;1.20;;;29.80;61.50;;;;;;4931931;29;20063;-70
2022/08/30 11:31:11;;;;;;;6.85;1.40;;;30.20;57.10;;;;;;4876239;29;215461;-70
2022/08/30 11:33:44;;;;;;;5.55;1.20;;;30.30;58.30;;;;;;4931508;29;20055;-70
2022/08/30 11:36:27;;;;;;;9.13;1.48;;;30.40;57.50;;;;;;4864699;29;213312;-71
2022/08/30 11:38:53;;;;;;;4.90;1.15;;;30.60;58.10;;;;;;4959084;28;212329;-70
2022/08/30 11:41:45;;;;;;;5.57;1.23;;;31.00;58.20;;;;;;4962897;28;184327;-71
2022/08/30 11:44:31;;;;;;;7.93;1.30;;;31.40;57.00;;;;;;4958647;28;228616;-71
2022/08/30 11:47:36;;;;;;;5.88;1.33;;;31.50;55.70;;;;;;4984353;28;20065;-71
2022/08/30 11:50:17;;;;;;;4.97;1.20;;;31.60;56.20;;;;;;4943676;28;209952;-72
2022/08/30 11:53:20;;;;;;;5.85;1.23;;;31.90;55.50;;;;;;4988664;28;20050;-71
2022/08/30 11:56:26;;;;;;;6.70;1.33;;;32.20;56.20;;;;;;4941955;28;217345;-71
2022/08/30 11:59:08;;;;;;;4.68;1.20;;;32.60;53.50;;;;;;4976133;28;211704;-71
2022/08/30 12:01:37;;;;;;;6.03;1.30;;;32.50;53.60;;;;;;4973375;28;206937;-70
2022/08/30 12:04:05;;;;;;;6.35;1.10;;;32.60;54.50;;;;;;4939672;28;214152;-70
2022/08/30 12:06:40;;;;;;;4.93;1.10;;;32.50;53.50;;;;;;4976234;28;20054;-71
2022/08/30 12:09:18;;;;;;;5.40;1.30;;;32.30;53.70;;;;;;4944500;28;210646;-70
2022/08/30 12:11:53;;;;;;;5.53;1.10;;;32.60;53.70;;;;;;4994115;28;20030;-70
2022/08/30 12:14:47;;;;;;;4.78;1.10;;;32.90;53.20;;;;;;4939756;28;217552;-70
2022/08/30 12:20:28;;;;;;;4.57;1.02;;;33.10;52.60;;;;;;4944337;28;211559;-70
2022/08/30 12:22:55;;;;;;;6.07;1.15;;;32.10;52.30;;;;;;4988167;28;20057;-70
2022/08/30 12:25:28;;;;;;;4.32;1.00;;;32.20;53.00;;;;;;4949166;28;209497;-70
2022/08/30 12:28:12;;;;;;;7.18;1.20;;;32.80;53.70;;;;;;4983890;28;20062;-70
2022/08/30 12:30:39;;;;;;;5.63;1.15;;;32.80;51.10;;;;;;4943034;28;206324;-71
2022/08/30 12:33:11;;;;;;;5.28;1.20;;;32.80;51.50;;;;;;4993639;28;20058;-71
2022/08/30 12:35:38;;;;;;;6.13;1.30;;;33.10;50.40;;;;;;4948670;28;214237;-71
2022/08/30 12:38:12;;;;;;;4.32;1.00;;;33.30;51.80;;;;;;4988822;28;20452;-70
2022/08/30 12:40:51;;;;;;;6.80;1.10;;;33.80;52.00;;;;;;4944135;28;214745;-70
2022/08/30 12:43:28;;;;;;;5.70;1.30;;;34.40;51.90;;;;;;4987053;28;20050;-70
2022/08/30 12:46:00;;;;;;;6.25;1.20;;;34.70;51.30;;;;;;4944160;28;216171;-71
2022/08/30 12:48:27;;;;;;;5.25;1.17;;;34.80;50.20;;;;;;4986780;28;20062;-70
2022/08/30 12:51:00;;;;;;;7.40;1.27;;;34.80;50.50;;;;;;4952273;28;52237;-70
2022/08/30 12:53:44;;;;;;;5.70;1.17;;;35.00;49.90;;;;;;5002589;28;20062;-70
2022/08/30 12:56:13;;;;;;;5.63;1.10;;;35.00;48.80;;;;;;4937416;28;228933;-71
2022/08/30 12:58:44;;;;;;;3.35;1.00;;;34.80;50.10;;;;;;4987972;28;20427;-70
2022/08/30 13:01:31;;;;;;;6.25;1.05;;;35.00;49.30;;;;;;4954203;28;210606;-70
2022/08/30 13:04:14;;;;;;;6.97;1.02;;;35.30;49.10;;;;;;4950721;28;215974;-71
2022/08/30 13:06:58;;;;;;;4.00;0.90;;;35.40;48.90;;;;;;4988483;28;20065;-71
2022/08/30 13:09:37;;;;;;;4.97;1.10;;;35.20;48.50;;;;;;4953506;28;212080;-70